createdAt,value
2019-05-29T00:01:28.105Z,6.58
2019-05-29T00:03:59.242Z,6.65
2019-05-29T00:06:29.452Z,6.63
2019-05-29T00:08:59.609Z,6.57
2019-05-29T00:11:29.819Z,6.53
2019-05-29T00:14:15.538Z,6.61
2019-05-29T00:16:33.236Z,6.73
2019-05-29T00:19:03.389Z,6.60
2019-05-29T00:21:33.566Z,6.78
2019-05-29T00:24:03.727Z,6.54
2019-05-29T00:26:33.995Z,6.48
2019-05-29T00:29:05.547Z,6.52
2019-05-29T00:31:35.867Z,6.43
2019-05-29T00:34:06.987Z,6.56
2019-05-29T00:36:37.220Z,6.73
2019-05-29T00:39:08.647Z,6.69
2019-05-29T00:41:38.931Z,6.53
2019-05-29T00:44:11.138Z,6.42
2019-05-29T00:46:41.306Z,6.48
2019-05-29T00:49:11.784Z,6.40
2019-05-29T00:51:42.007Z,6.46
2019-05-29T00:54:12.534Z,6.47
2019-05-29T00:56:42.944Z,6.52
2019-05-29T00:59:13.172Z,6.53
2019-05-29T01:01:43.398Z,6.52
2019-05-29T01:04:13.645Z,6.38
2019-05-29T01:06:43.885Z,6.38
2019-05-29T01:09:14.428Z,6.50
2019-05-29T01:11:44.735Z,6.38
2019-05-29T01:14:15.171Z,6.54
2019-05-29T01:16:45.285Z,6.37
2019-05-29T01:19:24.787Z,6.34
2019-05-29T01:21:56.029Z,6.37
2019-05-29T01:24:26.488Z,6.28
2019-05-29T01:26:56.631Z,6.59
2019-05-29T01:29:26.819Z,6.52
2019-05-29T01:31:57.366Z,6.54
2019-05-29T01:34:27.665Z,6.39
2019-05-29T01:36:57.839Z,6.43
2019-05-29T01:39:27.987Z,6.59
2019-05-29T01:41:59.231Z,6.41
2019-05-29T01:44:29.449Z,6.21
2019-05-29T01:46:59.679Z,6.23
2019-05-29T01:49:33.799Z,6.11
2019-05-29T01:52:03.918Z,5.82
2019-05-29T01:54:35.096Z,5.70
2019-05-29T01:57:05.301Z,5.69
2019-05-29T01:59:35.508Z,5.70
2019-05-29T02:02:05.692Z,6.08
2019-05-29T02:04:35.884Z,5.75
2019-05-29T02:07:06.118Z,5.73
2019-05-29T02:09:36.336Z,5.71
2019-05-29T02:12:06.579Z,5.86
2019-05-29T02:14:36.724Z,6.03
2019-05-29T02:17:06.878Z,5.79
2019-05-29T02:19:37.184Z,5.72
2019-05-29T02:22:07.564Z,5.71
2019-05-29T02:24:37.743Z,5.72
2019-05-29T02:27:10.189Z,5.79
2019-05-29T02:29:40.388Z,5.97
2019-05-29T02:32:10.547Z,5.96
2019-05-29T02:34:40.736Z,6.15
2019-05-29T02:37:10.913Z,6.23
2019-05-29T02:39:42.789Z,6.13
2019-05-29T02:42:13.019Z,6.10
2019-05-29T02:44:43.194Z,6.24
2019-05-29T02:47:14.902Z,6.18
2019-05-29T02:49:45.064Z,6.23
2019-05-29T02:52:15.278Z,6.18
2019-05-29T02:54:45.533Z,6.25
2019-05-29T02:57:15.694Z,6.13
2019-05-29T02:59:46.858Z,6.03
2019-05-29T03:02:17.069Z,5.99
2019-05-29T03:04:47.330Z,5.97
2019-05-29T03:07:17.599Z,6.00
2019-05-29T03:09:47.767Z,6.38
2019-05-29T03:12:17.934Z,6.27
2019-05-29T03:14:48.181Z,6.35
2019-05-29T03:17:18.328Z,6.32
2019-05-29T03:19:48.483Z,6.19
2019-05-29T03:22:18.610Z,6.17
2019-05-29T03:24:48.723Z,6.28
2019-05-29T03:27:18.842Z,6.41
2019-05-29T03:29:50.058Z,6.87
2019-05-29T03:32:20.285Z,6.88
2019-05-29T03:34:50.463Z,6.42
2019-05-29T03:37:20.604Z,6.25
2019-05-29T03:39:50.786Z,6.40
2019-05-29T03:42:22.132Z,6.24
2019-05-29T03:44:52.304Z,6.22
2019-05-29T03:47:22.546Z,6.07
2019-05-29T03:49:53.840Z,6.12
2019-05-29T03:52:26.336Z,6.21
2019-05-29T03:54:58.236Z,6.14
2019-05-29T03:57:29.734Z,6.19
2019-05-29T04:00:00.304Z,6.33
2019-05-29T04:02:33.298Z,6.37
2019-05-29T04:05:03.937Z,6.45
2019-05-29T04:07:35.710Z,6.43
2019-05-29T04:10:06.640Z,6.41
2019-05-29T04:12:38.097Z,6.63
2019-05-29T04:15:09.776Z,6.73
2019-05-29T04:17:41.624Z,6.83
2019-05-29T04:20:11.882Z,7.05
2019-05-29T04:22:45.152Z,7.16
2019-05-29T04:25:15.425Z,7.09
2019-05-29T04:27:48.550Z,7.06
2019-05-29T04:30:19.742Z,7.11
2019-05-29T04:32:49.766Z,7.22
2019-05-29T04:35:19.940Z,7.33
2019-05-29T04:37:50.066Z,7.26
2019-05-29T04:40:20.205Z,7.36
2019-05-29T04:42:50.338Z,7.54
2019-05-29T04:45:20.599Z,7.67
2019-05-29T04:47:50.755Z,7.88
2019-05-29T04:50:20.911Z,7.97
2019-05-29T04:52:51.116Z,8.02
2019-05-29T04:55:22.829Z,8.08
2019-05-29T04:57:52.984Z,8.19
2019-05-29T05:00:24.153Z,8.40
2019-05-29T05:02:54.319Z,8.48
2019-05-29T05:05:24.451Z,8.71
2019-05-29T05:07:54.691Z,8.85
2019-05-29T05:10:38.176Z,8.93
2019-05-29T05:13:08.915Z,9.03
2019-05-29T05:15:40.620Z,9.17
2019-05-29T05:18:10.918Z,9.17
2019-05-29T05:20:41.327Z,9.31
2019-05-29T05:23:11.443Z,9.36
2019-05-29T05:25:41.596Z,9.25
2019-05-29T05:28:11.760Z,9.36
2019-05-29T05:30:41.984Z,9.45
2019-05-29T05:33:12.576Z,9.53
2019-05-29T05:35:42.789Z,9.70
2019-05-29T05:38:12.969Z,9.77
2019-05-29T05:40:43.833Z,9.81
2019-05-29T05:43:23.798Z,9.85
2019-05-29T05:45:45.840Z,9.92
2019-05-29T05:48:17.057Z,10.06
2019-05-29T05:50:47.254Z,10.20
2019-05-29T05:53:17.424Z,10.07
2019-05-29T05:55:47.592Z,9.88
2019-05-29T05:58:17.753Z,9.94
2019-05-29T06:00:49.134Z,10.00
2019-05-29T06:03:19.352Z,9.94
2019-05-29T06:05:49.564Z,10.05
2019-05-29T06:08:19.911Z,10.15
2019-05-29T06:10:51.321Z,10.11
2019-05-29T06:13:21.603Z,10.23
2019-05-29T06:15:51.814Z,10.15
2019-05-29T06:18:22.194Z,10.06
2019-05-29T06:20:54.388Z,10.10
2019-05-29T06:23:24.335Z,10.15
2019-05-29T06:25:54.515Z,10.41
2019-05-29T06:28:24.711Z,10.64
2019-05-29T06:30:54.855Z,10.41
2019-05-29T06:33:25.126Z,10.46
2019-05-29T06:35:55.329Z,10.78
2019-05-29T06:38:26.002Z,10.79
2019-05-29T06:40:57.781Z,10.81
2019-05-29T06:43:28.139Z,10.95
2019-05-29T06:45:58.311Z,11.03
2019-05-29T06:51:01.182Z,11.50
2019-05-29T06:53:32.451Z,11.58
2019-05-29T06:56:03.536Z,11.73
2019-05-29T06:58:33.990Z,11.86
2019-05-29T07:01:04.155Z,11.92
2019-05-29T07:03:35.603Z,12.10
2019-05-29T07:06:05.985Z,12.14
2019-05-29T07:08:40.178Z,12.21
2019-05-29T07:11:08.078Z,12.06
2019-05-29T07:13:41.890Z,12.53
2019-05-29T07:16:11.836Z,12.73
2019-05-29T07:19:18.352Z,12.51
2019-05-29T07:21:13.998Z,12.68
2019-05-29T07:23:46.137Z,12.63
2019-05-29T07:26:16.150Z,12.79
2019-05-29T07:29:02.975Z,12.97
2019-05-29T07:31:18.329Z,13.05
2019-05-29T07:33:48.653Z,12.55
2019-05-29T07:36:20.134Z,12.83
2019-05-29T07:39:02.487Z,13.21
2019-05-29T07:41:22.255Z,13.19
2019-05-29T07:43:52.980Z,13.20
2019-05-29T07:46:23.231Z,13.44
2019-05-29T07:48:58.018Z,12.87
2019-05-29T07:51:28.211Z,13.72
2019-05-29T07:53:58.366Z,13.73
2019-05-29T07:56:28.524Z,13.44
2019-05-29T07:59:03.660Z,13.34
2019-05-29T08:01:33.759Z,13.76
2019-05-29T08:04:04.032Z,13.82
2019-05-29T08:06:34.294Z,14.01
2019-05-29T08:09:06.121Z,13.78
2019-05-29T08:11:36.512Z,13.59
2019-05-29T08:14:06.793Z,14.22
2019-05-29T08:16:39.670Z,14.21
2019-05-29T08:19:10.004Z,14.39
2019-05-29T08:21:40.956Z,14.74
2019-05-29T08:24:12.052Z,14.75
2019-05-29T08:26:44.887Z,14.82
2019-05-29T08:29:15.145Z,14.83
2019-05-29T08:31:45.372Z,15.26
2019-05-29T08:34:15.553Z,14.77
2019-05-29T08:37:02.199Z,14.68
2019-05-29T08:39:34.023Z,15.00
2019-05-29T08:42:17.594Z,15.14
2019-05-29T08:44:24.292Z,15.51
2019-05-29T08:47:09.100Z,15.12
2019-05-29T08:49:27.891Z,14.65
2019-05-29T08:52:11.300Z,15.39
2019-05-29T08:54:30.059Z,15.48
2019-05-29T08:57:00.243Z,15.64
2019-05-29T08:59:31.182Z,15.31
2019-05-29T09:02:01.352Z,15.59
2019-05-29T09:04:31.540Z,15.58
2019-05-29T09:07:01.735Z,15.98
2019-05-29T09:09:31.888Z,15.95
2019-05-29T09:12:02.085Z,15.80
2019-05-29T09:14:32.391Z,15.89
2019-05-29T09:17:02.627Z,16.31
2019-05-29T09:19:32.915Z,15.81
2019-05-29T09:22:03.187Z,16.00
2019-05-29T09:24:33.441Z,15.76
2019-05-29T09:27:03.628Z,16.17
2019-05-29T09:29:33.808Z,16.08
2019-05-29T09:32:04.140Z,16.08
2019-05-29T09:34:34.300Z,15.92
2019-05-29T09:37:04.480Z,16.29
2019-05-29T09:39:34.773Z,16.36
2019-05-29T09:42:05.137Z,16.22
2019-05-29T09:44:39.455Z,16.57
2019-05-29T09:47:08.341Z,16.72
2019-05-29T09:49:38.536Z,16.52
2019-05-29T09:52:08.685Z,16.99
2019-05-29T09:54:38.834Z,16.88
2019-05-29T09:57:08.962Z,17.06
2019-05-29T09:59:39.144Z,17.08
2019-05-29T10:02:09.585Z,17.08
2019-05-29T10:04:40.675Z,16.60
2019-05-29T10:07:10.875Z,16.70
2019-05-29T10:09:41.028Z,16.80
2019-05-29T10:12:11.161Z,17.16
2019-05-29T10:14:41.345Z,17.16
2019-05-29T10:17:13.011Z,16.78
2019-05-29T10:19:43.591Z,17.13
2019-05-29T10:22:13.830Z,17.46
2019-05-29T10:24:44.035Z,17.81
2019-05-29T10:27:14.219Z,17.55
2019-05-29T10:29:44.896Z,17.11
2019-05-29T10:32:16.765Z,17.67
2019-05-29T10:34:48.398Z,17.35
2019-05-29T10:37:18.686Z,17.06
2019-05-29T10:39:49.030Z,17.21
2019-05-29T10:42:20.853Z,17.10
2019-05-29T10:44:51.359Z,16.95
2019-05-29T10:47:22.863Z,16.68
2019-05-29T10:49:53.855Z,17.87
2019-05-29T10:52:24.180Z,18.20
2019-05-29T10:54:54.486Z,17.70
2019-05-29T10:57:25.843Z,18.23
2019-05-29T10:59:55.982Z,18.36
2019-05-29T11:02:26.169Z,18.48
2019-05-29T11:04:59.120Z,18.53
2019-05-29T11:07:29.030Z,17.96
2019-05-29T11:09:59.805Z,17.93
2019-05-29T11:12:29.958Z,18.56
2019-05-29T11:15:00.150Z,18.97
2019-05-29T11:17:30.332Z,18.67
2019-05-29T11:20:00.563Z,19.07
2019-05-29T11:22:31.519Z,18.85
2019-05-29T11:25:21.125Z,18.93
2019-05-29T11:27:33.515Z,19.38
2019-05-29T11:30:03.895Z,19.01
2019-05-29T11:32:34.141Z,19.82
2019-05-29T11:35:04.624Z,19.91
2019-05-29T11:37:35.471Z,19.36
2019-05-29T11:40:06.157Z,19.99
2019-05-29T11:42:36.316Z,18.67
2019-05-29T11:45:09.253Z,18.43
2019-05-29T11:47:39.411Z,18.91
2019-05-29T11:50:19.214Z,19.07
2019-05-29T11:52:43.738Z,19.16
2019-05-29T11:55:14.504Z,19.64
2019-05-29T11:57:44.737Z,19.10
2019-05-29T12:00:20.264Z,18.57
2019-05-29T12:02:47.998Z,19.11
2019-05-29T12:05:18.401Z,18.16
2019-05-29T12:07:48.666Z,18.48
2019-05-29T12:10:18.988Z,18.77
2019-05-29T12:12:49.561Z,19.36
2019-05-29T12:15:19.978Z,19.88
2019-05-29T12:17:55.700Z,19.62
2019-05-29T12:20:27.956Z,19.03
2019-05-29T12:23:18.914Z,20.16
2019-05-29T12:25:26.125Z,20.46
2019-05-29T12:27:57.324Z,20.04
2019-05-29T12:30:27.669Z,20.13
2019-05-29T12:32:59.063Z,20.14
2019-05-29T12:35:32.479Z,20.45
2019-05-29T12:38:03.523Z,20.65
2019-05-29T12:40:33.821Z,21.07
2019-05-29T12:43:04.081Z,19.91
2019-05-29T12:45:34.389Z,20.00
2019-05-29T12:48:11.637Z,19.33
2019-05-29T12:50:36.733Z,19.64
2019-05-29T12:53:07.134Z,19.46
2019-05-29T12:55:37.503Z,20.07
2019-05-29T12:58:08.371Z,20.58
2019-05-29T13:00:38.609Z,20.47
2019-05-29T13:03:08.889Z,20.37
2019-05-29T13:05:39.033Z,20.66
2019-05-29T13:08:09.217Z,22.11
2019-05-29T13:10:39.370Z,20.98
2019-05-29T13:13:11.175Z,21.11
2019-05-29T13:15:41.489Z,21.66
2019-05-29T13:18:13.740Z,21.31
2019-05-29T13:20:43.959Z,20.71
2019-05-29T13:23:14.169Z,20.69
2019-05-29T13:25:44.524Z,21.55
2019-05-29T13:28:14.724Z,22.34
2019-05-29T13:30:44.964Z,21.41
2019-05-29T13:33:15.196Z,21.78
2019-05-29T13:35:46.960Z,21.92
2019-05-29T13:38:17.122Z,21.87
2019-05-29T13:40:47.324Z,21.12
2019-05-29T13:43:17.580Z,21.71
2019-05-29T13:45:47.753Z,20.61
2019-05-29T13:48:18.914Z,19.31
2019-05-29T13:50:49.391Z,21.05
2019-05-29T13:53:20.293Z,21.91
2019-05-29T13:55:50.456Z,20.94
2019-05-29T13:58:20.661Z,20.65
2019-05-29T14:00:50.888Z,19.47
2019-05-29T14:03:21.212Z,20.78
2019-05-29T14:05:51.537Z,21.22
2019-05-29T14:08:21.793Z,20.13
2019-05-29T14:10:52.011Z,19.65
2019-05-29T14:13:22.765Z,20.85
2019-05-29T14:15:53.205Z,19.96
2019-05-29T14:18:24.451Z,19.87
2019-05-29T14:20:56.205Z,21.43
2019-05-29T14:23:26.454Z,21.41
2019-05-29T14:25:56.654Z,20.06
2019-05-29T14:28:26.837Z,21.00
2019-05-29T14:30:57.040Z,22.61
2019-05-29T14:33:27.277Z,21.21
2019-05-29T14:35:57.447Z,21.15
2019-05-29T14:38:27.604Z,19.60
2019-05-29T14:40:57.784Z,19.35
2019-05-29T14:43:27.959Z,18.96
2019-05-29T14:45:58.162Z,18.28
2019-05-29T14:48:29.170Z,18.68
2019-05-29T14:51:03.611Z,19.36
2019-05-29T14:53:33.329Z,19.66
2019-05-29T14:56:04.454Z,19.39
2019-05-29T14:58:35.770Z,20.08
2019-05-29T15:01:07.160Z,20.97
2019-05-29T15:03:40.688Z,20.74
2019-05-29T15:06:11.729Z,20.89
2019-05-29T15:08:42.031Z,21.03
2019-05-29T15:11:14.101Z,21.83
2019-05-29T15:13:44.253Z,21.44
2019-05-29T15:16:15.772Z,22.31
2019-05-29T15:18:45.950Z,21.86
2019-05-29T15:21:16.121Z,21.84
2019-05-29T15:23:47.902Z,21.31
2019-05-29T15:26:20.108Z,21.91
2019-05-29T15:28:56.372Z,20.85
2019-05-29T15:31:26.592Z,21.83
2019-05-29T15:33:57.007Z,23.15
2019-05-29T15:36:27.237Z,23.10
2019-05-29T15:38:58.377Z,22.79
2019-05-29T15:41:28.639Z,21.60
2019-05-29T15:43:58.873Z,21.78
2019-05-29T15:46:30.766Z,21.31
2019-05-29T15:49:01.165Z,22.12
2019-05-29T15:51:31.547Z,21.63
2019-05-29T15:54:01.762Z,22.14
2019-05-29T15:56:31.971Z,22.19
2019-05-29T15:59:02.232Z,21.80
2019-05-29T16:01:32.476Z,21.95
2019-05-29T16:04:02.782Z,21.93
2019-05-29T16:06:32.941Z,21.12
2019-05-29T16:09:03.565Z,21.47
2019-05-29T16:11:33.900Z,21.83
2019-05-29T16:14:05.579Z,21.37
2019-05-29T16:16:35.791Z,21.90
2019-05-29T16:19:06.034Z,21.63
2019-05-29T16:21:36.201Z,21.75
2019-05-29T16:24:06.431Z,21.78
2019-05-29T16:26:36.581Z,21.58
2019-05-29T16:29:06.782Z,21.59
2019-05-29T16:31:40.272Z,21.59
2019-05-29T16:34:12.196Z,21.89
2019-05-29T16:36:42.505Z,21.47
2019-05-29T16:39:13.496Z,21.00
2019-05-29T16:41:43.765Z,22.01
2019-05-29T16:44:16.311Z,22.17
2019-05-29T16:46:46.657Z,22.68
2019-05-29T16:49:16.805Z,22.21
2019-05-29T16:51:47.101Z,21.93
2019-05-29T16:54:17.371Z,22.13
2019-05-29T16:56:47.568Z,21.97
2019-05-29T16:59:19.125Z,21.69
2019-05-29T17:01:49.489Z,21.54
2019-05-29T17:04:19.702Z,21.56
2019-05-29T17:06:49.921Z,22.42
2019-05-29T17:09:20.352Z,21.40
2019-05-29T17:11:50.565Z,21.61
2019-05-29T17:14:20.931Z,22.51
2019-05-29T17:16:51.252Z,22.10
2019-05-29T17:19:22.795Z,21.96
2019-05-29T17:21:53.439Z,22.22
2019-05-29T17:24:24.967Z,22.10
2019-05-29T17:26:55.385Z,21.43
2019-05-29T17:29:25.582Z,21.20
2019-05-29T17:31:55.811Z,22.25
2019-05-29T17:34:26.055Z,20.83
2019-05-29T17:36:58.105Z,20.32
2019-05-29T17:39:28.294Z,20.03
2019-05-29T17:41:58.516Z,19.92
2019-05-29T17:44:28.698Z,19.54
2019-05-29T17:46:58.849Z,19.35
2019-05-29T17:49:34.450Z,19.29
2019-05-29T17:52:01.062Z,19.28
2019-05-29T17:54:31.422Z,18.93
2019-05-29T17:57:03.414Z,18.80
2019-05-29T17:59:33.647Z,19.37
2019-05-29T18:02:03.893Z,19.08
2019-05-29T18:04:34.069Z,18.48
2019-05-29T18:07:05.432Z,18.54
2019-05-29T18:09:36.436Z,18.41
2019-05-29T18:12:07.668Z,18.19
2019-05-29T18:14:38.130Z,18.27
2019-05-29T18:17:08.745Z,18.23
2019-05-29T18:19:39.609Z,18.06
2019-05-29T18:22:10.515Z,18.14
2019-05-29T18:24:42.819Z,17.80
2019-05-29T18:27:13.648Z,17.92
2019-05-29T18:29:43.902Z,17.78
2019-05-29T18:32:14.097Z,17.79
2019-05-29T18:34:44.280Z,17.86
2019-05-29T18:37:19.995Z,17.85
2019-05-29T18:39:49.968Z,17.72
2019-05-29T18:42:25.595Z,17.57
2019-05-29T18:44:56.223Z,17.23
2019-05-29T18:47:27.261Z,17.17
2019-05-29T18:49:57.565Z,17.19
2019-05-29T18:52:27.830Z,16.77
2019-05-29T18:54:58.062Z,16.73
2019-05-29T18:57:29.092Z,16.51
2019-05-29T19:00:01.279Z,16.38
2019-05-29T19:02:33.047Z,16.15
2019-05-29T19:05:03.324Z,16.14
2019-05-29T19:07:33.595Z,15.99
2019-05-29T19:10:06.429Z,15.74
2019-05-29T19:12:36.508Z,15.75
2019-05-29T19:15:07.163Z,15.71
2019-05-29T19:18:03.904Z,15.56
2019-05-29T19:20:34.220Z,15.55
2019-05-29T19:23:04.650Z,15.40
2019-05-29T19:25:34.852Z,15.50
2019-05-29T19:28:06.652Z,15.30
2019-05-29T19:30:39.147Z,15.48
2019-05-29T19:33:21.109Z,15.43
2019-05-29T19:36:09.621Z,15.40
2019-05-29T19:38:51.833Z,15.47
2019-05-29T19:41:28.292Z,15.25
2019-05-29T19:44:00.846Z,15.22
2019-05-29T19:46:53.606Z,15.18
2019-05-29T19:49:16.699Z,15.17
2019-05-29T19:51:56.468Z,15.22
2019-05-29T19:54:27.448Z,15.10
2019-05-29T19:56:57.818Z,15.01
2019-05-29T19:59:40.111Z,14.94
2019-05-29T20:02:21.988Z,14.89
2019-05-29T20:05:01.162Z,14.83
2019-05-29T20:07:33.321Z,14.90
2019-05-29T20:10:10.931Z,14.82
2019-05-29T20:12:52.580Z,14.69
2019-05-29T20:15:25.707Z,14.71
2019-05-29T20:17:56.458Z,14.67
2019-05-29T20:20:28.168Z,14.61
2019-05-29T20:23:00.265Z,14.50
2019-05-29T20:25:33.276Z,14.43
2019-05-29T20:28:06.436Z,14.47
2019-05-29T20:30:36.472Z,14.43
2019-05-29T20:33:06.967Z,14.41
2019-05-29T20:35:37.355Z,14.39
2019-05-29T20:38:07.638Z,14.37
2019-05-29T20:40:39.323Z,14.40
2019-05-29T20:43:09.652Z,14.36
2019-05-29T20:45:39.869Z,14.32
2019-05-29T20:48:12.662Z,14.28
2019-05-29T20:50:43.290Z,14.38
2019-05-29T20:53:16.945Z,14.28
2019-05-29T20:55:47.189Z,14.31
2019-05-29T20:58:24.668Z,14.19
2019-05-29T21:00:51.036Z,14.19
2019-05-29T21:03:21.278Z,14.23
2019-05-29T21:05:51.535Z,14.29
2019-05-29T21:08:21.714Z,14.15
2019-05-29T21:10:52.127Z,14.19
2019-05-29T21:13:22.464Z,14.21
2019-05-29T21:15:52.629Z,14.09
2019-05-29T21:18:22.787Z,14.13
2019-05-29T21:20:53.007Z,14.13
2019-05-29T21:23:23.149Z,13.98
2019-05-29T21:25:53.469Z,14.10
2019-05-29T21:28:39.030Z,14.15
2019-05-29T21:30:55.650Z,14.12
2019-05-29T21:33:25.948Z,14.09
2019-05-29T21:35:56.222Z,14.09
2019-05-29T21:38:26.536Z,14.13
2019-05-29T21:40:56.801Z,14.12
2019-05-29T21:43:26.987Z,14.08
2019-05-29T21:45:57.250Z,14.04
2019-05-29T21:48:27.470Z,14.04
2019-05-29T21:50:57.648Z,14.03
2019-05-29T21:53:30.829Z,14.11
2019-05-29T21:56:01.017Z,14.14
2019-05-29T21:58:31.237Z,14.08
2019-05-29T22:01:01.566Z,14.09
2019-05-29T22:03:32.890Z,14.12
2019-05-29T22:06:03.165Z,14.06
2019-05-29T22:08:33.519Z,14.04
2019-05-29T22:11:03.693Z,14.02
2019-05-29T22:13:33.940Z,14.07
2019-05-29T22:16:04.115Z,14.02
2019-05-29T22:18:34.333Z,14.01
2019-05-29T22:21:04.484Z,14.03
2019-05-29T22:23:34.671Z,14.03
2019-05-29T22:26:04.816Z,13.98
2019-05-29T22:28:34.973Z,14.00
2019-05-29T22:31:05.148Z,13.91
2019-05-29T22:33:35.426Z,13.95
2019-05-29T22:36:05.754Z,13.95
2019-05-29T22:38:35.900Z,14.02
2019-05-29T22:41:06.140Z,13.99
2019-05-29T22:43:37.000Z,14.08
2019-05-29T22:46:07.151Z,14.03
2019-05-29T22:48:37.410Z,14.03
2019-05-29T22:51:07.745Z,14.02
2019-05-29T22:53:38.021Z,14.07
2019-05-29T22:56:08.550Z,14.04
2019-05-29T22:58:38.782Z,14.00
2019-05-29T23:01:08.907Z,14.04
2019-05-29T23:03:39.065Z,14.07
2019-05-29T23:06:09.186Z,14.11
2019-05-29T23:08:39.357Z,14.05
2019-05-29T23:11:09.583Z,14.09
2019-05-29T23:13:39.814Z,13.98
2019-05-29T23:16:09.994Z,13.95
2019-05-29T23:18:40.163Z,14.00
2019-05-29T23:21:10.328Z,13.96
2019-05-29T23:23:40.542Z,13.95
2019-05-29T23:26:10.669Z,13.96
2019-05-29T23:28:42.041Z,13.93
2019-05-29T23:31:12.216Z,13.95
2019-05-29T23:33:42.363Z,13.87
2019-05-29T23:36:12.575Z,13.92
2019-05-29T23:38:42.808Z,13.94
2019-05-29T23:41:13.856Z,13.95
2019-05-29T23:43:44.104Z,13.96
2019-05-29T23:46:14.281Z,13.92
2019-05-29T23:48:44.472Z,13.92
2019-05-29T23:51:15.645Z,13.86
2019-05-29T23:53:45.747Z,13.85
2019-05-29T23:56:15.911Z,13.77
2019-05-29T23:58:46.096Z,13.70
